Anandale, Louisiana
Current Conditions -  °F | °C
As of 7:53 AM on Monday 22 Dec 2014 (Local Time) from KAEX Reporting Station
Moderate Fog Moderate Fog  
Wind Chill: 52°   Ceiling: 200
Heat Index: 52°   Visibility: 0.25mi
Dew Point: 52°   Wind: 5mph
Humidity: 100%   Direction: 140°SE
Pressure: 29.79"   Gusts: NA
Location:  31.2655°N, 92.4705°W
Report Text: KAEX 221353Z 14004KT 1/4SM FG VV002 11/11 A2979 RMK AO2 SLP092 T01110111
Loading
Personal Weather Stations






























Interactive Weather Map New forecast layout! Learn more

10-Day Weather Forecast

Advertisements
Track Severe Weather on mobile